sensor_id;sensor_type;location;lat;lon;timestamp;P1;durP1;ratioP1;P2;durP2;ratioP2
2638;SDS011;1329;51.384;7.122;2023-03-16T00:00:42;4.23;;;3.60;;
2638;SDS011;1329;51.384;7.122;2023-03-16T00:03:57;4.17;;;3.70;;
2638;SDS011;1329;51.384;7.122;2023-03-16T00:07:17;4.00;;;3.60;;
2638;SDS011;1329;51.384;7.122;2023-03-16T00:13:01;5.07;;;3.77;;
2638;SDS011;1329;51.384;7.122;2023-03-16T00:22:48;5.67;;;3.37;;
2638;SDS011;1329;51.384;7.122;2023-03-16T00:26:10;6.70;;;3.63;;
2638;SDS011;1329;51.384;7.122;2023-03-16T00:29:31;4.10;;;3.70;;
2638;SDS011;1329;51.384;7.122;2023-03-16T00:49:12;4.63;;;3.73;;
2638;SDS011;1329;51.384;7.122;2023-03-16T00:52:18;4.73;;;3.30;;
2638;SDS011;1329;51.384;7.122;2023-03-16T01:06:07;4.07;;;3.33;;
2638;SDS011;1329;51.384;7.122;2023-03-16T01:09:03;5.70;;;3.63;;
2638;SDS011;1329;51.384;7.122;2023-03-16T01:11:54;7.07;;;4.13;;
2638;SDS011;1329;51.384;7.122;2023-03-16T01:14:56;6.37;;;3.67;;
2638;SDS011;1329;51.384;7.122;2023-03-16T01:18:04;4.47;;;3.80;;
2638;SDS011;1329;51.384;7.122;2023-03-16T01:24:20;5.60;;;3.77;;
2638;SDS011;1329;51.384;7.122;2023-03-16T01:27:16;4.77;;;4.17;;
2638;SDS011;1329;51.384;7.122;2023-03-16T01:30:16;7.27;;;3.97;;
2638;SDS011;1329;51.384;7.122;2023-03-16T01:33:36;4.80;;;3.70;;
2638;SDS011;1329;51.384;7.122;2023-03-16T01:36:59;5.33;;;3.77;;
2638;SDS011;1329;51.384;7.122;2023-03-16T01:43:05;3.87;;;3.47;;
2638;SDS011;1329;51.384;7.122;2023-03-16T01:49:01;5.40;;;3.60;;
2638;SDS011;1329;51.384;7.122;2023-03-16T01:55:13;5.47;;;4.03;;
2638;SDS011;1329;51.384;7.122;2023-03-16T01:58:36;3.87;;;3.47;;
2638;SDS011;1329;51.384;7.122;2023-03-16T02:01:31;4.93;;;3.60;;
2638;SDS011;1329;51.384;7.122;2023-03-16T02:04:45;5.27;;;3.73;;
2638;SDS011;1329;51.384;7.122;2023-03-16T02:07:18;5.50;;;4.10;;
2638;SDS011;1329;51.384;7.122;2023-03-16T02:09:52;4.63;;;3.40;;
2638;SDS011;1329;51.384;7.122;2023-03-16T02:12:26;5.73;;;3.60;;
2638;SDS011;1329;51.384;7.122;2023-03-16T02:14:56;3.90;;;3.50;;
2638;SDS011;1329;51.384;7.122;2023-03-16T02:17:29;5.20;;;4.00;;
2638;SDS011;1329;51.384;7.122;2023-03-16T02:20:07;3.70;;;3.13;;
2638;SDS011;1329;51.384;7.122;2023-03-16T02:22:50;4.17;;;3.00;;
2638;SDS011;1329;51.384;7.122;2023-03-16T02:25:21;3.60;;;3.13;;
2638;SDS011;1329;51.384;7.122;2023-03-16T02:27:54;3.40;;;3.10;;
2638;SDS011;1329;51.384;7.122;2023-03-16T02:30:33;4.93;;;3.20;;
2638;SDS011;1329;51.384;7.122;2023-03-16T02:33:00;3.57;;;3.27;;
2638;SDS011;1329;51.384;7.122;2023-03-16T02:35:30;4.63;;;3.40;;
2638;SDS011;1329;51.384;7.122;2023-03-16T02:37:58;4.23;;;3.00;;
2638;SDS011;1329;51.384;7.122;2023-03-16T02:40:31;3.77;;;3.37;;
2638;SDS011;1329;51.384;7.122;2023-03-16T02:43:01;4.00;;;3.10;;
2638;SDS011;1329;51.384;7.122;2023-03-16T02:45:34;3.93;;;3.40;;
2638;SDS011;1329;51.384;7.122;2023-03-16T02:48:08;3.93;;;3.30;;
2638;SDS011;1329;51.384;7.122;2023-03-16T02:50:45;3.37;;;3.07;;
2638;SDS011;1329;51.384;7.122;2023-03-16T02:53:15;3.60;;;3.17;;
2638;SDS011;1329;51.384;7.122;2023-03-16T02:55:44;5.77;;;3.57;;
2638;SDS011;1329;51.384;7.122;2023-03-16T02:58:13;4.10;;;3.07;;
2638;SDS011;1329;51.384;7.122;2023-03-16T03:00:43;3.00;;;2.80;;
2638;SDS011;1329;51.384;7.122;2023-03-16T03:03:10;3.10;;;2.80;;
2638;SDS011;1329;51.384;7.122;2023-03-16T03:05:41;3.70;;;3.07;;
2638;SDS011;1329;51.384;7.122;2023-03-16T03:08:09;4.03;;;3.43;;
2638;SDS011;1329;51.384;7.122;2023-03-16T03:10:38;4.03;;;3.30;;
2638;SDS011;1329;51.384;7.122;2023-03-16T03:13:08;4.43;;;3.67;;
2638;SDS011;1329;51.384;7.122;2023-03-16T03:15:46;5.33;;;3.40;;
2638;SDS011;1329;51.384;7.122;2023-03-16T03:18:16;3.83;;;3.17;;
2638;SDS011;1329;51.384;7.122;2023-03-16T03:20:44;3.77;;;3.17;;
2638;SDS011;1329;51.384;7.122;2023-03-16T03:23:15;3.23;;;3.00;;
2638;SDS011;1329;51.384;7.122;2023-03-16T03:25:42;5.00;;;3.37;;
2638;SDS011;1329;51.384;7.122;2023-03-16T03:28:10;3.23;;;2.90;;
2638;SDS011;1329;51.384;7.122;2023-03-16T03:30:37;3.97;;;3.30;;
2638;SDS011;1329;51.384;7.122;2023-03-16T03:33:07;4.37;;;3.57;;
2638;SDS011;1329;51.384;7.122;2023-03-16T03:35:35;4.10;;;3.40;;
2638;SDS011;1329;51.384;7.122;2023-03-16T03:38:03;4.27;;;3.07;;
2638;SDS011;1329;51.384;7.122;2023-03-16T03:40:32;4.13;;;3.33;;
2638;SDS011;1329;51.384;7.122;2023-03-16T03:43:03;3.33;;;2.93;;
2638;SDS011;1329;51.384;7.122;2023-03-16T03:45:37;4.57;;;3.30;;
2638;SDS011;1329;51.384;7.122;2023-03-16T03:48:09;4.17;;;3.23;;
2638;SDS011;1329;51.384;7.122;2023-03-16T03:50:36;3.90;;;3.30;;
2638;SDS011;1329;51.384;7.122;2023-03-16T03:53:06;3.47;;;3.03;;
2638;SDS011;1329;51.384;7.122;2023-03-16T03:55:34;4.00;;;3.60;;
2638;SDS011;1329;51.384;7.122;2023-03-16T03:58:01;3.13;;;2.83;;
2638;SDS011;1329;51.384;7.122;2023-03-16T04:00:33;3.30;;;3.00;;
2638;SDS011;1329;51.384;7.122;2023-03-16T04:03:01;3.57;;;3.27;;
2638;SDS011;1329;51.384;7.122;2023-03-16T04:05:34;3.20;;;2.90;;
2638;SDS011;1329;51.384;7.122;2023-03-16T04:08:05;3.63;;;3.13;;
2638;SDS011;1329;51.384;7.122;2023-03-16T04:10:37;4.03;;;3.33;;
2638;SDS011;1329;51.384;7.122;2023-03-16T04:13:08;3.60;;;3.30;;
2638;SDS011;1329;51.384;7.122;2023-03-16T04:15:36;3.40;;;3.03;;
2638;SDS011;1329;51.384;7.122;2023-03-16T04:18:03;3.60;;;3.00;;
2638;SDS011;1329;51.384;7.122;2023-03-16T04:20:35;3.67;;;3.37;;
2638;SDS011;1329;51.384;7.122;2023-03-16T04:23:06;3.97;;;2.97;;
2638;SDS011;1329;51.384;7.122;2023-03-16T04:25:33;4.13;;;3.43;;
2638;SDS011;1329;51.384;7.122;2023-03-16T04:28:07;4.57;;;3.60;;
2638;SDS011;1329;51.384;7.122;2023-03-16T04:30:38;3.67;;;3.00;;
2638;SDS011;1329;51.384;7.122;2023-03-16T04:33:07;3.83;;;3.17;;
2638;SDS011;1329;51.384;7.122;2023-03-16T04:35:51;4.33;;;3.30;;
2638;SDS011;1329;51.384;7.122;2023-03-16T04:38:24;4.10;;;3.30;;
2638;SDS011;1329;51.384;7.122;2023-03-16T04:40:51;4.20;;;3.50;;
2638;SDS011;1329;51.384;7.122;2023-03-16T04:43:19;5.37;;;3.80;;
2638;SDS011;1329;51.384;7.122;2023-03-16T04:45:50;4.00;;;3.40;;
2638;SDS011;1329;51.384;7.122;2023-03-16T04:48:18;4.33;;;3.93;;
2638;SDS011;1329;51.384;7.122;2023-03-16T04:50:47;5.03;;;3.80;;
2638;SDS011;1329;51.384;7.122;2023-03-16T04:53:16;5.40;;;3.70;;
2638;SDS011;1329;51.384;7.122;2023-03-16T04:55:43;4.17;;;3.73;;
2638;SDS011;1329;51.384;7.122;2023-03-16T04:58:11;4.63;;;3.83;;
2638;SDS011;1329;51.384;7.122;2023-03-16T05:00:38;5.67;;;4.00;;
2638;SDS011;1329;51.384;7.122;2023-03-16T05:03:09;5.87;;;4.00;;
2638;SDS011;1329;51.384;7.122;2023-03-16T05:05:38;4.10;;;3.70;;
2638;SDS011;1329;51.384;7.122;2023-03-16T05:08:08;5.97;;;4.00;;
2638;SDS011;1329;51.384;7.122;2023-03-16T05:10:36;5.13;;;4.30;;
2638;SDS011;1329;51.384;7.122;2023-03-16T05:13:06;4.50;;;4.10;;
2638;SDS011;1329;51.384;7.122;2023-03-16T05:15:34;7.57;;;5.00;;
2638;SDS011;1329;51.384;7.122;2023-03-16T05:18:02;6.07;;;4.80;;
2638;SDS011;1329;51.384;7.122;2023-03-16T05:20:32;5.33;;;4.83;;
2638;SDS011;1329;51.384;7.122;2023-03-16T05:23:02;5.57;;;5.00;;
2638;SDS011;1329;51.384;7.122;2023-03-16T05:25:48;5.90;;;4.93;;
2638;SDS011;1329;51.384;7.122;2023-03-16T05:28:19;6.47;;;4.90;;
2638;SDS011;1329;51.384;7.122;2023-03-16T05:30:46;6.77;;;5.10;;
2638;SDS011;1329;51.384;7.122;2023-03-16T05:33:13;5.70;;;5.10;;
2638;SDS011;1329;51.384;7.122;2023-03-16T05:35:40;6.20;;;5.60;;
2638;SDS011;1329;51.384;7.122;2023-03-16T05:38:08;5.73;;;5.10;;
2638;SDS011;1329;51.384;7.122;2023-03-16T05:40:42;5.60;;;5.10;;
2638;SDS011;1329;51.384;7.122;2023-03-16T05:43:11;5.80;;;5.23;;
2638;SDS011;1329;51.384;7.122;2023-03-16T05:45:38;7.43;;;5.00;;
2638;SDS011;1329;51.384;7.122;2023-03-16T05:48:14;6.20;;;5.20;;
2638;SDS011;1329;51.384;7.122;2023-03-16T05:50:42;6.63;;;5.57;;
2638;SDS011;1329;51.384;7.122;2023-03-16T05:53:09;6.17;;;5.00;;
2638;SDS011;1329;51.384;7.122;2023-03-16T05:55:42;6.00;;;5.27;;
2638;SDS011;1329;51.384;7.122;2023-03-16T05:58:15;6.07;;;4.90;;
2638;SDS011;1329;51.384;7.122;2023-03-16T06:00:45;5.80;;;5.13;;
2638;SDS011;1329;51.384;7.122;2023-03-16T06:03:14;5.83;;;5.23;;
2638;SDS011;1329;51.384;7.122;2023-03-16T06:05:41;6.87;;;5.00;;
2638;SDS011;1329;51.384;7.122;2023-03-16T06:08:11;6.33;;;5.10;;
2638;SDS011;1329;51.384;7.122;2023-03-16T06:10:39;5.93;;;5.13;;
2638;SDS011;1329;51.384;7.122;2023-03-16T06:13:07;6.17;;;5.30;;
2638;SDS011;1329;51.384;7.122;2023-03-16T06:15:37;6.00;;;4.80;;
2638;SDS011;1329;51.384;7.122;2023-03-16T06:18:08;5.83;;;5.30;;
2638;SDS011;1329;51.384;7.122;2023-03-16T06:20:35;6.37;;;5.00;;
2638;SDS011;1329;51.384;7.122;2023-03-16T06:23:03;5.27;;;4.77;;
2638;SDS011;1329;51.384;7.122;2023-03-16T06:25:30;6.70;;;5.20;;
2638;SDS011;1329;51.384;7.122;2023-03-16T06:27:59;5.80;;;5.23;;
2638;SDS011;1329;51.384;7.122;2023-03-16T06:30:30;6.10;;;5.27;;
2638;SDS011;1329;51.384;7.122;2023-03-16T06:32:59;5.27;;;4.77;;
2638;SDS011;1329;51.384;7.122;2023-03-16T06:35:26;6.83;;;5.30;;
2638;SDS011;1329;51.384;7.122;2023-03-16T06:37:53;6.00;;;4.97;;
2638;SDS011;1329;51.384;7.122;2023-03-16T06:40:21;7.47;;;4.90;;
2638;SDS011;1329;51.384;7.122;2023-03-16T06:42:49;5.77;;;4.90;;
2638;SDS011;1329;51.384;7.122;2023-03-16T06:45:35;5.57;;;4.93;;
2638;SDS011;1329;51.384;7.122;2023-03-16T06:48:04;5.30;;;4.70;;
2638;SDS011;1329;51.384;7.122;2023-03-16T06:50:34;5.40;;;4.37;;
2638;SDS011;1329;51.384;7.122;2023-03-16T06:53:01;6.07;;;5.47;;
2638;SDS011;1329;51.384;7.122;2023-03-16T06:55:29;5.87;;;5.10;;
2638;SDS011;1329;51.384;7.122;2023-03-16T06:57:56;5.03;;;4.60;;
2638;SDS011;1329;51.384;7.122;2023-03-16T07:00:24;5.80;;;4.80;;
2638;SDS011;1329;51.384;7.122;2023-03-16T07:02:52;5.43;;;4.73;;
2638;SDS011;1329;51.384;7.122;2023-03-16T07:05:21;6.23;;;5.00;;
2638;SDS011;1329;51.384;7.122;2023-03-16T07:07:49;5.07;;;4.57;;
2638;SDS011;1329;51.384;7.122;2023-03-16T07:10:17;5.40;;;4.90;;
2638;SDS011;1329;51.384;7.122;2023-03-16T07:12:52;4.97;;;4.47;;
2638;SDS011;1329;51.384;7.122;2023-03-16T07:15:31;5.10;;;4.30;;
2638;SDS011;1329;51.384;7.122;2023-03-16T07:17:59;5.03;;;4.43;;
2638;SDS011;1329;51.384;7.122;2023-03-16T07:20:27;5.13;;;4.63;;
2638;SDS011;1329;51.384;7.122;2023-03-16T07:22:56;8.30;;;4.70;;
2638;SDS011;1329;51.384;7.122;2023-03-16T07:25:26;4.77;;;4.27;;
2638;SDS011;1329;51.384;7.122;2023-03-16T07:27:57;4.97;;;4.27;;
2638;SDS011;1329;51.384;7.122;2023-03-16T07:30:30;5.10;;;4.60;;
2638;SDS011;1329;51.384;7.122;2023-03-16T07:32:58;5.60;;;5.00;;
2638;SDS011;1329;51.384;7.122;2023-03-16T07:38:21;5.73;;;4.23;;
2638;SDS011;1329;51.384;7.122;2023-03-16T07:40:49;6.67;;;5.47;;
2638;SDS011;1329;51.384;7.122;2023-03-16T07:43:17;5.13;;;4.60;;
2638;SDS011;1329;51.384;7.122;2023-03-16T07:45:46;6.53;;;4.60;;
2638;SDS011;1329;51.384;7.122;2023-03-16T07:48:18;4.97;;;4.47;;
2638;SDS011;1329;51.384;7.122;2023-03-16T07:50:46;5.10;;;4.60;;
2638;SDS011;1329;51.384;7.122;2023-03-16T07:53:17;5.77;;;4.83;;
2638;SDS011;1329;51.384;7.122;2023-03-16T07:55:46;4.97;;;4.50;;
2638;SDS011;1329;51.384;7.122;2023-03-16T07:58:18;6.23;;;4.53;;
2638;SDS011;1329;51.384;7.122;2023-03-16T08:00:49;4.73;;;4.20;;
2638;SDS011;1329;51.384;7.122;2023-03-16T08:03:16;4.73;;;4.17;;
2638;SDS011;1329;51.384;7.122;2023-03-16T08:05:43;5.57;;;4.37;;
2638;SDS011;1329;51.384;7.122;2023-03-16T08:08:12;5.63;;;4.53;;
2638;SDS011;1329;51.384;7.122;2023-03-16T08:10:42;4.77;;;4.37;;
2638;SDS011;1329;51.384;7.122;2023-03-16T08:13:09;4.83;;;4.43;;
2638;SDS011;1329;51.384;7.122;2023-03-16T08:15:45;4.37;;;3.90;;
2638;SDS011;1329;51.384;7.122;2023-03-16T08:18:22;4.30;;;3.90;;
2638;SDS011;1329;51.384;7.122;2023-03-16T08:20:54;6.10;;;4.93;;
2638;SDS011;1329;51.384;7.122;2023-03-16T08:23:23;5.13;;;4.50;;
2638;SDS011;1329;51.384;7.122;2023-03-16T08:25:55;4.20;;;3.80;;
2638;SDS011;1329;51.384;7.122;2023-03-16T08:28:23;5.53;;;4.50;;
2638;SDS011;1329;51.384;7.122;2023-03-16T08:30:51;4.40;;;3.97;;
2638;SDS011;1329;51.384;7.122;2023-03-16T08:33:20;5.03;;;4.27;;
2638;SDS011;1329;51.384;7.122;2023-03-16T08:35:48;6.03;;;4.57;;
2638;SDS011;1329;51.384;7.122;2023-03-16T08:38:15;4.77;;;4.30;;
2638;SDS011;1329;51.384;7.122;2023-03-16T08:40:46;4.90;;;4.30;;
2638;SDS011;1329;51.384;7.122;2023-03-16T08:43:18;4.63;;;4.23;;
2638;SDS011;1329;51.384;7.122;2023-03-16T08:45:45;5.10;;;4.60;;
2638;SDS011;1329;51.384;7.122;2023-03-16T08:48:13;5.70;;;4.77;;
2638;SDS011;1329;51.384;7.122;2023-03-16T08:50:50;5.00;;;4.50;;
2638;SDS011;1329;51.384;7.122;2023-03-16T08:53:18;5.20;;;4.50;;
2638;SDS011;1329;51.384;7.122;2023-03-16T08:55:47;5.03;;;4.53;;
2638;SDS011;1329;51.384;7.122;2023-03-16T08:58:18;5.60;;;4.80;;
2638;SDS011;1329;51.384;7.122;2023-03-16T09:00:45;5.43;;;4.90;;
2638;SDS011;1329;51.384;7.122;2023-03-16T09:03:14;5.40;;;4.90;;
2638;SDS011;1329;51.384;7.122;2023-03-16T09:05:45;5.63;;;4.87;;
2638;SDS011;1329;51.384;7.122;2023-03-16T09:08:14;5.60;;;5.03;;
2638;SDS011;1329;51.384;7.122;2023-03-16T09:10:40;6.03;;;5.43;;
2638;SDS011;1329;51.384;7.122;2023-03-16T09:13:09;5.80;;;5.20;;
2638;SDS011;1329;51.384;7.122;2023-03-16T09:15:40;5.83;;;5.33;;
2638;SDS011;1329;51.384;7.122;2023-03-16T09:18:08;5.80;;;5.30;;
2638;SDS011;1329;51.384;7.122;2023-03-16T09:20:35;5.77;;;5.17;;
2638;SDS011;1329;51.384;7.122;2023-03-16T09:23:03;5.83;;;5.33;;
2638;SDS011;1329;51.384;7.122;2023-03-16T09:25:34;6.67;;;5.80;;
2638;SDS011;1329;51.384;7.122;2023-03-16T09:28:09;6.27;;;5.67;;
2638;SDS011;1329;51.384;7.122;2023-03-16T09:30:38;5.73;;;5.23;;
2638;SDS011;1329;51.384;7.122;2023-03-16T09:33:13;6.47;;;5.87;;
2638;SDS011;1329;51.384;7.122;2023-03-16T09:35:45;7.33;;;6.47;;
2638;SDS011;1329;51.384;7.122;2023-03-16T09:38:15;7.00;;;6.27;;
2638;SDS011;1329;51.384;7.122;2023-03-16T09:40:43;7.27;;;6.57;;
2638;SDS011;1329;51.384;7.122;2023-03-16T09:43:17;7.23;;;6.53;;
2638;SDS011;1329;51.384;7.122;2023-03-16T09:46:03;7.43;;;6.73;;
2638;SDS011;1329;51.384;7.122;2023-03-16T09:48:35;7.23;;;6.53;;
2638;SDS011;1329;51.384;7.122;2023-03-16T09:51:06;6.60;;;6.00;;
2638;SDS011;1329;51.384;7.122;2023-03-16T09:53:44;7.40;;;6.40;;
2638;SDS011;1329;51.384;7.122;2023-03-16T09:56:19;7.43;;;6.53;;
2638;SDS011;1329;51.384;7.122;2023-03-16T09:58:59;7.60;;;6.20;;
2638;SDS011;1329;51.384;7.122;2023-03-16T10:01:39;6.90;;;6.20;;
2638;SDS011;1329;51.384;7.122;2023-03-16T10:04:23;6.63;;;6.00;;
2638;SDS011;1329;51.384;7.122;2023-03-16T10:07:16;7.67;;;6.00;;
2638;SDS011;1329;51.384;7.122;2023-03-16T10:10:05;6.67;;;5.97;;
2638;SDS011;1329;51.384;7.122;2023-03-16T10:12:52;6.83;;;6.03;;
2638;SDS011;1329;51.384;7.122;2023-03-16T10:15:21;6.83;;;6.13;;
2638;SDS011;1329;51.384;7.122;2023-03-16T10:17:54;6.70;;;6.10;;
2638;SDS011;1329;51.384;7.122;2023-03-16T10:20:27;6.80;;;6.10;;
2638;SDS011;1329;51.384;7.122;2023-03-16T10:22:57;6.67;;;5.97;;
2638;SDS011;1329;51.384;7.122;2023-03-16T10:25:29;6.60;;;5.90;;
2638;SDS011;1329;51.384;7.122;2023-03-16T10:28:08;5.93;;;5.23;;
2638;SDS011;1329;51.384;7.122;2023-03-16T10:30:38;6.00;;;5.27;;
2638;SDS011;1329;51.384;7.122;2023-03-16T10:33:14;6.07;;;5.20;;
2638;SDS011;1329;51.384;7.122;2023-03-16T10:35:51;6.20;;;5.33;;
2638;SDS011;1329;51.384;7.122;2023-03-16T10:38:33;5.80;;;5.20;;
2638;SDS011;1329;51.384;7.122;2023-03-16T10:41:26;5.97;;;5.33;;
2638;SDS011;1329;51.384;7.122;2023-03-16T10:43:58;5.30;;;4.63;;
2638;SDS011;1329;51.384;7.122;2023-03-16T10:46:37;5.07;;;4.57;;
2638;SDS011;1329;51.384;7.122;2023-03-16T10:49:18;5.17;;;4.57;;
2638;SDS011;1329;51.384;7.122;2023-03-16T10:51:51;6.63;;;5.60;;
2638;SDS011;1329;51.384;7.122;2023-03-16T10:54:22;5.37;;;4.50;;
2638;SDS011;1329;51.384;7.122;2023-03-16T10:56:56;5.77;;;4.67;;
2638;SDS011;1329;51.384;7.122;2023-03-16T10:59:33;5.30;;;4.70;;
2638;SDS011;1329;51.384;7.122;2023-03-16T11:02:07;4.87;;;4.33;;
2638;SDS011;1329;51.384;7.122;2023-03-16T11:04:43;5.23;;;4.23;;
2638;SDS011;1329;51.384;7.122;2023-03-16T11:07:14;5.00;;;4.50;;
2638;SDS011;1329;51.384;7.122;2023-03-16T11:09:46;4.73;;;4.23;;
2638;SDS011;1329;51.384;7.122;2023-03-16T11:12:20;4.77;;;4.27;;
2638;SDS011;1329;51.384;7.122;2023-03-16T11:14:52;4.70;;;4.30;;
2638;SDS011;1329;51.384;7.122;2023-03-16T11:17:23;5.57;;;4.43;;
2638;SDS011;1329;51.384;7.122;2023-03-16T11:20:05;5.00;;;4.50;;
2638;SDS011;1329;51.384;7.122;2023-03-16T11:22:48;5.03;;;4.00;;
2638;SDS011;1329;51.384;7.122;2023-03-16T11:25:37;4.10;;;3.77;;
2638;SDS011;1329;51.384;7.122;2023-03-16T11:28:13;4.60;;;3.90;;
2638;SDS011;1329;51.384;7.122;2023-03-16T11:30:53;5.50;;;3.83;;
2638;SDS011;1329;51.384;7.122;2023-03-16T11:33:29;4.07;;;3.50;;
2638;SDS011;1329;51.384;7.122;2023-03-16T11:36:06;4.10;;;3.50;;
2638;SDS011;1329;51.384;7.122;2023-03-16T11:38:45;4.00;;;3.27;;
2638;SDS011;1329;51.384;7.122;2023-03-16T11:41:27;3.60;;;3.30;;
2638;SDS011;1329;51.384;7.122;2023-03-16T11:44:07;3.40;;;3.10;;
2638;SDS011;1329;51.384;7.122;2023-03-16T11:46:45;4.70;;;3.20;;
2638;SDS011;1329;51.384;7.122;2023-03-16T11:49:30;3.87;;;3.17;;
2638;SDS011;1329;51.384;7.122;2023-03-16T11:52:15;4.23;;;3.40;;
2638;SDS011;1329;51.384;7.122;2023-03-16T11:54:57;3.57;;;3.23;;
2638;SDS011;1329;51.384;7.122;2023-03-16T11:57:38;4.77;;;3.27;;
2638;SDS011;1329;51.384;7.122;2023-03-16T12:00:29;2.97;;;2.67;;
2638;SDS011;1329;51.384;7.122;2023-03-16T12:03:13;3.23;;;2.60;;
2638;SDS011;1329;51.384;7.122;2023-03-16T12:06:12;3.23;;;2.87;;
2638;SDS011;1329;51.384;7.122;2023-03-16T12:12:32;3.97;;;2.40;;
2638;SDS011;1329;51.384;7.122;2023-03-16T12:15:18;2.63;;;2.27;;
2638;SDS011;1329;51.384;7.122;2023-03-16T12:18:07;4.57;;;2.40;;
2638;SDS011;1329;51.384;7.122;2023-03-16T12:20:46;3.07;;;2.37;;
2638;SDS011;1329;51.384;7.122;2023-03-16T12:23:20;3.43;;;2.30;;
2638;SDS011;1329;51.384;7.122;2023-03-16T12:26:01;2.93;;;2.40;;
2638;SDS011;1329;51.384;7.122;2023-03-16T12:28:29;2.40;;;2.20;;
2638;SDS011;1329;51.384;7.122;2023-03-16T12:31:00;2.83;;;2.40;;
2638;SDS011;1329;51.384;7.122;2023-03-16T12:33:42;2.53;;;2.33;;
2638;SDS011;1329;51.384;7.122;2023-03-16T12:39:33;2.60;;;2.40;;
2638;SDS011;1329;51.384;7.122;2023-03-16T12:45:28;2.50;;;2.30;;
2638;SDS011;1329;51.384;7.122;2023-03-16T12:48:05;3.33;;;2.33;;
2638;SDS011;1329;51.384;7.122;2023-03-16T12:50:48;2.70;;;2.40;;
2638;SDS011;1329;51.384;7.122;2023-03-16T12:53:25;2.85;;;2.35;;
2638;SDS011;1329;51.384;7.122;2023-03-16T12:56:05;2.63;;;2.20;;
2638;SDS011;1329;51.384;7.122;2023-03-16T12:58:39;2.60;;;2.40;;
2638;SDS011;1329;51.384;7.122;2023-03-16T13:01:13;2.73;;;2.40;;
2638;SDS011;1329;51.384;7.122;2023-03-16T13:03:47;4.40;;;2.60;;
2638;SDS011;1329;51.384;7.122;2023-03-16T13:06:23;3.63;;;2.77;;
2638;SDS011;1329;51.384;7.122;2023-03-16T13:08:57;2.70;;;2.45;;
2638;SDS011;1329;51.384;7.122;2023-03-16T13:11:26;2.37;;;2.00;;
2638;SDS011;1329;51.384;7.122;2023-03-16T13:14:05;2.90;;;2.60;;
2638;SDS011;1329;51.384;7.122;2023-03-16T13:16:35;3.42;;;2.33;;
2638;SDS011;1329;51.384;7.122;2023-03-16T13:21:59;2.58;;;2.38;;
2638;SDS011;1329;51.384;7.122;2023-03-16T13:24:43;2.88;;;2.53;;
2638;SDS011;1329;51.384;7.122;2023-03-16T13:27:21;4.30;;;2.60;;
2638;SDS011;1329;51.384;7.122;2023-03-16T13:30:01;2.60;;;2.40;;
2638;SDS011;1329;51.384;7.122;2023-03-16T13:32:51;2.78;;;2.50;;
2638;SDS011;1329;51.384;7.122;2023-03-16T13:35:20;3.72;;;2.47;;
2638;SDS011;1329;51.384;7.122;2023-03-16T13:38:12;3.13;;;2.60;;
2638;SDS011;1329;51.384;7.122;2023-03-16T13:41:02;2.42;;;2.22;;
2638;SDS011;1329;51.384;7.122;2023-03-16T13:43:37;2.85;;;2.60;;
2638;SDS011;1329;51.384;7.122;2023-03-16T13:46:16;2.50;;;2.30;;
2638;SDS011;1329;51.384;7.122;2023-03-16T13:48:45;2.90;;;2.60;;
2638;SDS011;1329;51.384;7.122;2023-03-16T13:51:15;3.10;;;2.50;;
2638;SDS011;1329;51.384;7.122;2023-03-16T13:53:47;3.88;;;2.65;;
2638;SDS011;1329;51.384;7.122;2023-03-16T13:56:16;2.97;;;2.67;;
2638;SDS011;1329;51.384;7.122;2023-03-16T13:58:51;2.97;;;2.65;;
2638;SDS011;1329;51.384;7.122;2023-03-16T14:01:24;4.43;;;2.85;;
2638;SDS011;1329;51.384;7.122;2023-03-16T14:03:54;2.85;;;2.60;;
2638;SDS011;1329;51.384;7.122;2023-03-16T14:06:50;3.17;;;2.88;;
2638;SDS011;1329;51.384;7.122;2023-03-16T14:09:29;3.60;;;2.83;;
2638;SDS011;1329;51.384;7.122;2023-03-16T14:11:59;3.67;;;2.78;;
2638;SDS011;1329;51.384;7.122;2023-03-16T14:14:28;3.58;;;2.63;;
2638;SDS011;1329;51.384;7.122;2023-03-16T14:17:07;2.53;;;2.28;;
2638;SDS011;1329;51.384;7.122;2023-03-16T14:19:41;3.45;;;2.60;;
2638;SDS011;1329;51.384;7.122;2023-03-16T14:22:13;4.57;;;2.67;;
2638;SDS011;1329;51.384;7.122;2023-03-16T14:24:45;2.65;;;2.30;;
2638;SDS011;1329;51.384;7.122;2023-03-16T14:27:26;2.80;;;2.13;;
2638;SDS011;1329;51.384;7.122;2023-03-16T14:30:14;2.70;;;2.30;;
2638;SDS011;1329;51.384;7.122;2023-03-16T14:32:55;3.50;;;2.40;;
2638;SDS011;1329;51.384;7.122;2023-03-16T14:35:38;3.28;;;2.45;;
2638;SDS011;1329;51.384;7.122;2023-03-16T14:38:25;3.17;;;2.50;;
2638;SDS011;1329;51.384;7.122;2023-03-16T14:41:01;3.88;;;2.20;;
2638;SDS011;1329;51.384;7.122;2023-03-16T14:43:32;2.60;;;2.20;;
2638;SDS011;1329;51.384;7.122;2023-03-16T14:46:26;2.35;;;2.10;;
2638;SDS011;1329;51.384;7.122;2023-03-16T14:49:02;2.38;;;2.00;;
2638;SDS011;1329;51.384;7.122;2023-03-16T14:51:36;3.17;;;2.08;;
2638;SDS011;1329;51.384;7.122;2023-03-16T14:54:10;2.30;;;2.03;;
2638;SDS011;1329;51.384;7.122;2023-03-16T14:56:46;2.38;;;1.90;;
2638;SDS011;1329;51.384;7.122;2023-03-16T14:59:15;2.30;;;2.00;;
2638;SDS011;1329;51.384;7.122;2023-03-16T15:01:45;2.22;;;2.00;;
2638;SDS011;1329;51.384;7.122;2023-03-16T15:04:19;2.80;;;2.10;;
2638;SDS011;1329;51.384;7.122;2023-03-16T15:06:53;2.75;;;1.88;;
2638;SDS011;1329;51.384;7.122;2023-03-16T15:09:28;2.05;;;1.83;;
2638;SDS011;1329;51.384;7.122;2023-03-16T15:12:11;2.40;;;1.80;;
2638;SDS011;1329;51.384;7.122;2023-03-16T15:14:43;6.88;;;1.98;;
2638;SDS011;1329;51.384;7.122;2023-03-16T15:17:29;2.35;;;1.65;;
2638;SDS011;1329;51.384;7.122;2023-03-16T15:20:03;2.00;;;1.80;;
2638;SDS011;1329;51.384;7.122;2023-03-16T15:22:32;2.33;;;1.75;;
2638;SDS011;1329;51.384;7.122;2023-03-16T15:25:10;2.72;;;1.80;;
2638;SDS011;1329;51.384;7.122;2023-03-16T15:27:51;2.50;;;1.77;;
2638;SDS011;1329;51.384;7.122;2023-03-16T15:30:21;2.72;;;1.80;;
2638;SDS011;1329;51.384;7.122;2023-03-16T15:32:58;1.95;;;1.55;;
2638;SDS011;1329;51.384;7.122;2023-03-16T15:35:34;2.38;;;1.60;;
2638;SDS011;1329;51.384;7.122;2023-03-16T15:38:03;1.35;;;1.23;;
2638;SDS011;1329;51.384;7.122;2023-03-16T15:40:38;2.83;;;1.30;;
2638;SDS011;1329;51.384;7.122;2023-03-16T15:43:10;1.48;;;1.38;;
2638;SDS011;1329;51.384;7.122;2023-03-16T15:45:44;1.50;;;1.40;;
2638;SDS011;1329;51.384;7.122;2023-03-16T15:48:13;2.13;;;1.42;;
2638;SDS011;1329;51.384;7.122;2023-03-16T15:50:53;2.13;;;1.40;;
2638;SDS011;1329;51.384;7.122;2023-03-16T15:53:27;2.20;;;1.40;;
2638;SDS011;1329;51.384;7.122;2023-03-16T15:56:07;1.40;;;1.30;;
2638;SDS011;1329;51.384;7.122;2023-03-16T15:58:50;1.77;;;1.33;;
2638;SDS011;1329;51.384;7.122;2023-03-16T16:01:29;1.67;;;1.40;;
2638;SDS011;1329;51.384;7.122;2023-03-16T16:04:02;1.60;;;1.45;;
2638;SDS011;1329;51.384;7.122;2023-03-16T16:06:43;1.58;;;1.45;;
2638;SDS011;1329;51.384;7.122;2023-03-16T16:09:15;5.95;;;2.00;;
2638;SDS011;1329;51.384;7.122;2023-03-16T16:11:56;2.00;;;1.40;;
2638;SDS011;1329;51.384;7.122;2023-03-16T16:14:25;2.30;;;1.38;;
2638;SDS011;1329;51.384;7.122;2023-03-16T16:16:55;1.83;;;1.45;;
2638;SDS011;1329;51.384;7.122;2023-03-16T16:19:26;2.63;;;1.50;;
2638;SDS011;1329;51.384;7.122;2023-03-16T16:22:01;2.40;;;1.80;;
2638;SDS011;1329;51.384;7.122;2023-03-16T16:24:31;4.07;;;1.77;;
2638;SDS011;1329;51.384;7.122;2023-03-16T16:26:59;2.67;;;1.60;;
2638;SDS011;1329;51.384;7.122;2023-03-16T16:29:30;1.90;;;1.55;;
2638;SDS011;1329;51.384;7.122;2023-03-16T16:31:59;1.77;;;1.53;;
2638;SDS011;1329;51.384;7.122;2023-03-16T16:34:28;2.43;;;1.60;;
2638;SDS011;1329;51.384;7.122;2023-03-16T16:37:03;1.70;;;1.50;;
2638;SDS011;1329;51.384;7.122;2023-03-16T16:39:34;2.27;;;1.60;;
2638;SDS011;1329;51.384;7.122;2023-03-16T16:42:13;2.23;;;1.30;;
2638;SDS011;1329;51.384;7.122;2023-03-16T16:44:43;1.63;;;1.53;;
2638;SDS011;1329;51.384;7.122;2023-03-16T16:47:17;1.70;;;1.60;;
2638;SDS011;1329;51.384;7.122;2023-03-16T16:49:55;2.67;;;1.67;;
2638;SDS011;1329;51.384;7.122;2023-03-16T16:52:23;3.30;;;1.93;;
2638;SDS011;1329;51.384;7.122;2023-03-16T16:54:55;2.53;;;1.90;;
2638;SDS011;1329;51.384;7.122;2023-03-16T16:57:26;1.87;;;1.77;;
2638;SDS011;1329;51.384;7.122;2023-03-16T17:00:14;3.47;;;1.87;;
2638;SDS011;1329;51.384;7.122;2023-03-16T17:02:54;2.33;;;2.13;;
2638;SDS011;1329;51.384;7.122;2023-03-16T17:05:24;3.57;;;2.10;;
2638;SDS011;1329;51.384;7.122;2023-03-16T17:07:55;2.10;;;1.77;;
2638;SDS011;1329;51.384;7.122;2023-03-16T17:10:27;2.33;;;1.83;;